createdAt,value
2023-01-23T00:01:41.927Z,96.80
2023-01-23T00:04:14.353Z,97.02
2023-01-23T00:06:43.701Z,97.09
2023-01-23T00:09:12.287Z,97.14
2023-01-23T00:11:41.072Z,97.64
2023-01-23T00:14:11.084Z,97.54
2023-01-23T00:16:39.886Z,97.68
2023-01-23T00:19:11.100Z,98.16
2023-01-23T00:21:39.918Z,97.71
2023-01-23T00:24:12.289Z,98.12
2023-01-23T00:26:41.286Z,98.38
2023-01-23T00:29:09.973Z,98.46
2023-01-23T00:31:39.921Z,98.21
2023-01-23T00:34:14.287Z,98.03
2023-01-23T00:36:45.183Z,97.97
2023-01-23T00:39:20.867Z,97.99
2023-01-23T00:41:50.509Z,97.85
2023-01-23T00:44:19.303Z,97.60
2023-01-23T00:46:49.080Z,97.65
2023-01-23T00:49:19.946Z,98.22
2023-01-23T00:51:49.161Z,98.28
2023-01-23T00:54:20.426Z,98.46
2023-01-23T00:56:49.180Z,98.72
2023-01-23T00:59:18.067Z,98.87
2023-01-23T01:01:46.892Z,98.83
2023-01-23T01:04:15.544Z,98.61
2023-01-23T01:06:44.275Z,98.53
2023-01-23T01:09:13.324Z,98.47
2023-01-23T01:11:42.016Z,98.23
2023-01-23T01:14:11.097Z,98.43
2023-01-23T01:16:45.523Z,98.84
2023-01-23T01:19:17.031Z,98.78
2023-01-23T01:21:45.870Z,98.51
2023-01-23T01:24:14.626Z,98.58
2023-01-23T01:26:43.549Z,98.36
2023-01-23T01:29:12.134Z,99.16
2023-01-23T01:31:40.964Z,99.32
2023-01-23T01:34:09.826Z,99.32
2023-01-23T01:36:38.478Z,99.74
2023-01-23T01:39:07.292Z,99.80
2023-01-23T01:41:36.638Z,99.86
2023-01-23T01:44:05.285Z,99.94
2023-01-23T01:46:34.147Z,99.92
2023-01-23T01:49:24.774Z,99.81
2023-01-23T01:52:01.353Z,99.61
2023-01-23T01:54:53.338Z,99.45
2023-01-23T01:57:29.975Z,99.92
2023-01-23T02:00:10.977Z,99.93
2023-01-23T02:02:45.341Z,99.98
2023-01-23T02:05:21.916Z,99.83
2023-01-23T02:08:32.174Z,99.87
2023-01-23T02:11:03.660Z,99.94
2023-01-23T02:13:37.303Z,100.00
2023-01-23T02:16:09.115Z,100.00
2023-01-23T02:18:44.950Z,100.00
2023-01-23T02:21:16.157Z,100.00
2023-01-23T02:24:00.854Z,100.00
2023-01-23T02:26:36.862Z,100.00
2023-01-23T02:29:07.233Z,100.00
2023-01-23T02:31:46.233Z,100.00
2023-01-23T02:34:15.869Z,100.00
2023-01-23T02:36:48.661Z,100.00
2023-01-23T02:39:19.080Z,99.96
2023-01-23T02:41:53.664Z,100.00
2023-01-23T02:44:30.149Z,100.00
2023-01-23T02:47:04.223Z,100.00
2023-01-23T02:49:34.385Z,100.00
2023-01-23T02:52:06.831Z,100.00
2023-01-23T02:54:37.546Z,100.00
2023-01-23T02:57:07.027Z,100.00
2023-01-23T02:59:54.552Z,100.00
2023-01-23T03:02:23.471Z,100.00
2023-01-23T03:04:52.232Z,100.00
2023-01-23T03:07:21.636Z,100.00
2023-01-23T03:09:51.339Z,100.00
2023-01-23T03:12:20.128Z,100.00
2023-01-23T03:14:50.861Z,100.00
2023-01-23T03:17:20.779Z,100.00
2023-01-23T03:19:49.329Z,100.00
2023-01-23T03:23:17.835Z,100.00
2023-01-23T03:30:02.128Z,100.00
2023-01-23T03:32:31.415Z,100.00
2023-01-23T03:35:00.126Z,100.00
2023-01-23T03:37:29.514Z,100.00
2023-01-23T03:40:18.492Z,100.00
2023-01-23T03:42:47.666Z,100.00
2023-01-23T03:45:18.313Z,100.00
2023-01-23T03:47:46.923Z,100.00
2023-01-23T03:50:16.196Z,100.00
2023-01-23T03:52:45.913Z,100.00
2023-01-23T03:55:14.698Z,100.00
2023-01-23T03:57:48.093Z,100.00
2023-01-23T04:00:26.717Z,100.00
2023-01-23T04:03:01.777Z,100.00
2023-01-23T04:05:30.539Z,100.00
2023-01-23T04:07:59.122Z,100.00
2023-01-23T04:10:28.829Z,100.00
2023-01-23T04:13:02.836Z,100.00
2023-01-23T04:15:35.226Z,100.00
2023-01-23T04:18:06.569Z,100.00
2023-01-23T04:20:35.463Z,100.00
2023-01-23T04:23:09.167Z,100.00
2023-01-23T04:25:38.620Z,100.00
2023-01-23T04:28:14.097Z,100.00
2023-01-23T04:30:43.249Z,100.00
2023-01-23T04:33:21.184Z,100.00
2023-01-23T04:37:00.143Z,100.00
2023-01-23T04:40:29.325Z,100.00
2023-01-23T04:44:06.233Z,100.00
2023-01-23T04:46:35.328Z,100.00
2023-01-23T04:49:10.983Z,100.00
2023-01-23T04:51:39.768Z,100.00
2023-01-23T04:54:08.355Z,100.00
2023-01-23T04:56:37.037Z,100.00
2023-01-23T04:59:06.732Z,100.00
2023-01-23T05:01:35.687Z,100.00
2023-01-23T05:04:05.350Z,100.00
2023-01-23T05:06:34.341Z,100.00
2023-01-23T05:09:03.342Z,100.00
2023-01-23T05:11:39.909Z,100.00
2023-01-23T05:14:10.635Z,100.00
2023-01-23T05:16:39.738Z,100.00
2023-01-23T05:19:17.130Z,100.00
2023-01-23T05:21:47.151Z,100.00
2023-01-23T05:24:19.489Z,100.00
2023-01-23T05:26:48.068Z,100.00
2023-01-23T05:29:17.818Z,100.00
2023-01-23T05:31:56.769Z,100.00
2023-01-23T05:34:40.992Z,100.00
2023-01-23T05:37:17.749Z,100.00
2023-01-23T05:39:49.320Z,100.00
2023-01-23T05:42:18.007Z,100.00
2023-01-23T05:45:26.012Z,100.00
2023-01-23T05:47:56.104Z,100.00
2023-01-23T05:50:25.739Z,100.00
2023-01-23T05:52:55.454Z,100.00
2023-01-23T05:55:24.447Z,100.00
2023-01-23T05:57:53.349Z,100.00
2023-01-23T06:00:37.997Z,100.00
2023-01-23T06:03:33.299Z,100.00
2023-01-23T06:06:28.516Z,100.00
2023-01-23T06:08:59.969Z,100.00
2023-01-23T06:11:29.889Z,100.00
2023-01-23T06:13:58.885Z,100.00
2023-01-23T06:16:28.386Z,100.00
2023-01-23T06:18:59.628Z,100.00
2023-01-23T06:21:30.681Z,100.00
2023-01-23T06:24:00.697Z,100.00
2023-01-23T06:26:31.938Z,100.00
2023-01-23T06:29:01.002Z,100.00
2023-01-23T06:31:32.943Z,100.00
2023-01-23T06:34:03.194Z,100.00
2023-01-23T06:36:37.327Z,100.00
2023-01-23T06:39:07.138Z,100.00
2023-01-23T06:41:42.072Z,100.00
2023-01-23T06:44:12.089Z,100.00
2023-01-23T06:46:42.026Z,100.00
2023-01-23T06:49:11.097Z,100.00
2023-01-23T06:51:41.322Z,100.00
2023-01-23T06:54:11.649Z,100.00
2023-01-23T06:56:40.442Z,99.99
2023-01-23T06:59:10.352Z,100.00
2023-01-23T07:02:38.910Z,100.00
2023-01-23T07:06:11.763Z,100.00
2023-01-23T07:09:40.221Z,100.00
2023-01-23T07:13:16.287Z,100.00
2023-01-23T07:16:52.785Z,100.00
2023-01-23T07:19:29.630Z,99.94
2023-01-23T07:21:58.305Z,99.99
2023-01-23T07:24:28.857Z,99.83
2023-01-23T07:26:57.747Z,99.57
2023-01-23T07:29:26.934Z,99.66
2023-01-23T07:31:55.622Z,99.73
2023-01-23T07:34:25.444Z,99.80
2023-01-23T07:36:54.328Z,100.00
2023-01-23T07:39:23.439Z,99.80
2023-01-23T07:41:52.013Z,99.63
2023-01-23T07:44:23.422Z,99.56
2023-01-23T07:46:52.088Z,99.16
2023-01-23T07:49:21.555Z,98.87
2023-01-23T07:51:52.186Z,98.49
2023-01-23T07:54:25.278Z,98.36
2023-01-23T07:56:54.276Z,98.40
2023-01-23T07:59:23.264Z,98.42
2023-01-23T08:01:53.205Z,98.25
2023-01-23T08:04:22.558Z,98.40
2023-01-23T08:06:51.784Z,98.45
2023-01-23T08:09:20.461Z,98.43
2023-01-23T08:11:53.550Z,99.03
2023-01-23T08:14:22.446Z,98.85
2023-01-23T08:16:52.754Z,98.22
2023-01-23T08:19:22.349Z,97.69
2023-01-23T08:21:51.487Z,97.70
2023-01-23T08:24:20.469Z,97.11
2023-01-23T08:26:50.580Z,96.70
2023-01-23T08:29:19.987Z,96.74
2023-01-23T08:31:49.971Z,96.45
2023-01-23T08:34:18.801Z,96.61
2023-01-23T08:36:48.154Z,96.79
2023-01-23T08:39:20.441Z,97.07
2023-01-23T08:41:49.226Z,96.96
2023-01-23T08:44:19.279Z,97.03
2023-01-23T08:46:48.578Z,97.19
2023-01-23T08:49:23.325Z,96.90
2023-01-23T08:51:52.829Z,96.74
2023-01-23T08:54:21.704Z,96.71
2023-01-23T08:56:50.436Z,96.56
2023-01-23T08:59:22.971Z,96.38
2023-01-23T09:01:52.226Z,95.57
2023-01-23T09:04:21.360Z,94.70
2023-01-23T09:06:50.358Z,94.28
2023-01-23T09:09:20.169Z,94.57
2023-01-23T09:11:48.650Z,94.87
2023-01-23T09:14:18.547Z,95.29
2023-01-23T09:16:47.568Z,94.49
2023-01-23T09:19:17.314Z,93.73
2023-01-23T09:21:50.555Z,93.20
2023-01-23T09:24:19.864Z,93.72
2023-01-23T09:26:49.368Z,93.20
2023-01-23T09:29:18.567Z,93.23
2023-01-23T09:31:47.512Z,93.01
2023-01-23T09:34:17.277Z,93.13
2023-01-23T09:36:46.663Z,93.10
2023-01-23T09:39:15.462Z,93.56
2023-01-23T09:41:46.447Z,94.29
2023-01-23T09:44:26.249Z,93.50
2023-01-23T09:47:05.446Z,92.51
2023-01-23T09:49:58.949Z,91.73
2023-01-23T09:52:39.310Z,91.00
2023-01-23T09:55:55.701Z,90.76
2023-01-23T09:58:39.760Z,91.11
2023-01-23T10:01:15.278Z,91.49
2023-01-23T10:03:44.200Z,91.50
2023-01-23T10:06:27.221Z,91.93
2023-01-23T10:09:25.913Z,92.35
2023-01-23T10:11:55.314Z,92.29
2023-01-23T10:14:55.852Z,91.96
2023-01-23T10:18:02.525Z,90.85
2023-01-23T10:21:06.031Z,90.69
2023-01-23T10:23:47.005Z,89.80
2023-01-23T10:26:31.799Z,89.38
2023-01-23T10:29:19.193Z,88.84
2023-01-23T10:31:58.537Z,89.32
2023-01-23T10:34:53.052Z,90.25
2023-01-23T10:37:31.646Z,90.03
2023-01-23T10:40:05.869Z,89.42
2023-01-23T10:42:34.846Z,89.83
2023-01-23T10:45:04.252Z,89.94
2023-01-23T10:47:38.870Z,89.37
2023-01-23T10:50:10.645Z,89.49
2023-01-23T10:52:41.831Z,89.12
2023-01-23T10:55:20.443Z,89.35
2023-01-23T10:57:55.104Z,89.77
2023-01-23T11:00:45.517Z,89.60
2023-01-23T11:03:23.135Z,89.52
2023-01-23T11:05:55.290Z,90.02
2023-01-23T11:08:26.838Z,89.61
2023-01-23T11:11:31.313Z,89.77
2023-01-23T11:14:14.772Z,89.52
2023-01-23T11:16:44.507Z,89.47
2023-01-23T11:19:20.970Z,89.80
2023-01-23T11:21:56.007Z,90.07
2023-01-23T11:24:41.148Z,90.14
2023-01-23T11:27:17.962Z,89.76
2023-01-23T11:30:03.835Z,89.78
2023-01-23T11:32:47.990Z,89.79
2023-01-23T11:35:24.442Z,89.74
2023-01-23T11:37:57.379Z,90.22
2023-01-23T11:40:26.233Z,90.43
2023-01-23T11:42:55.928Z,90.63
2023-01-23T11:45:46.994Z,90.26
2023-01-23T11:48:49.447Z,90.01
2023-01-23T11:52:14.326Z,89.40
2023-01-23T11:55:21.380Z,89.35
2023-01-23T11:58:19.164Z,89.79
2023-01-23T12:01:49.250Z,89.97
2023-01-23T12:05:00.809Z,89.95
2023-01-23T12:12:14.067Z,90.47
2023-01-23T12:15:37.863Z,89.78
2023-01-23T12:19:03.365Z,90.12
2023-01-23T12:22:06.467Z,90.27
2023-01-23T12:24:45.162Z,90.46
2023-01-23T12:27:28.200Z,90.65
2023-01-23T12:30:05.997Z,90.59
2023-01-23T12:33:00.069Z,90.38
2023-01-23T12:36:01.478Z,90.03
2023-01-23T12:39:12.307Z,89.33
2023-01-23T12:41:47.238Z,89.12
2023-01-23T12:44:25.857Z,89.22
2023-01-23T12:47:03.362Z,90.02
2023-01-23T12:49:55.999Z,89.45
2023-01-23T12:52:30.493Z,89.20
2023-01-23T12:55:24.373Z,89.68
2023-01-23T12:58:07.930Z,89.42
2023-01-23T13:00:38.821Z,89.61
2023-01-23T13:03:31.277Z,89.62
2023-01-23T13:06:36.154Z,89.83
2023-01-23T13:09:31.974Z,90.05
2023-01-23T13:12:23.819Z,89.98
2023-01-23T13:18:01.374Z,90.03
2023-01-23T13:21:14.159Z,89.75
2023-01-23T13:23:43.233Z,89.82
2023-01-23T13:26:21.314Z,89.79
2023-01-23T13:28:56.792Z,89.90
2023-01-23T13:31:50.842Z,90.02
2023-01-23T13:34:20.983Z,90.14
2023-01-23T13:36:51.500Z,90.08
2023-01-23T13:39:28.667Z,90.31
2023-01-23T13:42:13.359Z,90.38
2023-01-23T13:45:16.565Z,89.99
2023-01-23T14:30:20.419Z,89.87
2023-01-23T14:32:51.347Z,90.00
2023-01-23T14:35:34.088Z,90.22
2023-01-23T14:38:08.244Z,89.91
2023-01-23T14:40:50.642Z,90.29
2023-01-23T14:43:27.606Z,90.23
2023-01-23T14:46:17.322Z,90.23
2023-01-23T14:48:52.421Z,90.49
2023-01-23T14:51:27.225Z,90.22
2023-01-23T14:54:06.459Z,90.40
2023-01-23T14:56:40.398Z,90.52
2023-01-23T14:59:24.133Z,90.49
2023-01-23T15:02:13.121Z,90.89
2023-01-23T15:05:08.582Z,91.09
2023-01-23T15:08:00.531Z,91.05
2023-01-23T15:10:35.364Z,91.04
2023-01-23T15:13:12.243Z,91.53
2023-01-23T15:15:46.877Z,92.02
2023-01-23T15:18:28.263Z,92.24
2023-01-23T15:20:59.806Z,92.40
2023-01-23T15:23:33.355Z,92.35
2023-01-23T15:26:12.885Z,92.11
2023-01-23T15:28:50.320Z,92.53
2023-01-23T15:31:36.248Z,92.81
2023-01-23T15:34:19.723Z,93.08
2023-01-23T15:37:06.717Z,93.02
2023-01-23T15:39:37.929Z,93.49
2023-01-23T15:42:13.578Z,93.56
2023-01-23T15:44:45.276Z,93.45
2023-01-23T15:47:14.946Z,93.84
2023-01-23T15:49:43.827Z,93.98
2023-01-23T15:52:28.153Z,94.09
2023-01-23T15:55:03.908Z,94.12
2023-01-23T15:57:33.029Z,93.99
2023-01-23T16:00:01.614Z,94.36
2023-01-23T16:02:55.092Z,94.54
2023-01-23T16:05:29.161Z,95.03
2023-01-23T16:08:01.775Z,95.18
2023-01-23T16:10:37.761Z,95.17
2023-01-23T16:13:08.551Z,94.84
2023-01-23T16:15:39.852Z,95.08
2023-01-23T16:18:10.118Z,95.03
2023-01-23T16:20:43.952Z,95.03
2023-01-23T16:23:20.194Z,95.06
2023-01-23T16:25:52.521Z,95.04
2023-01-23T16:28:30.020Z,95.74
2023-01-23T16:30:59.171Z,95.68
2023-01-23T16:33:28.158Z,95.99
2023-01-23T16:35:56.949Z,96.03
2023-01-23T16:38:29.347Z,96.03
2023-01-23T16:41:02.104Z,95.88
2023-01-23T16:43:33.822Z,96.19
2023-01-23T16:46:03.647Z,96.16
2023-01-23T16:48:32.979Z,95.94
2023-01-23T16:51:12.162Z,95.92
2023-01-23T16:53:49.903Z,96.16
2023-01-23T16:56:23.654Z,96.32
2023-01-23T16:58:53.316Z,96.26
2023-01-23T17:01:25.080Z,96.55
2023-01-23T17:04:01.030Z,96.93
2023-01-23T17:06:30.107Z,96.96
2023-01-23T17:08:58.816Z,96.91
2023-01-23T17:11:38.972Z,96.85
2023-01-23T17:14:23.430Z,96.81
2023-01-23T17:16:54.025Z,96.98
2023-01-23T17:19:31.767Z,96.96
2023-01-23T17:22:06.675Z,96.47
2023-01-23T17:24:35.477Z,96.31
2023-01-23T17:27:04.285Z,96.22
2023-01-23T17:29:33.080Z,96.37
2023-01-23T17:32:04.811Z,96.00
2023-01-23T17:34:49.436Z,95.78
2023-01-23T17:37:24.273Z,95.62
2023-01-23T17:39:55.476Z,95.77
2023-01-23T17:42:24.446Z,95.32
2023-01-23T17:44:53.536Z,95.23
2023-01-23T17:47:23.144Z,95.40
2023-01-23T17:49:54.916Z,95.34
2023-01-23T17:52:25.218Z,95.29
2023-01-23T17:54:54.731Z,95.07
2023-01-23T17:57:23.535Z,95.15
2023-01-23T17:59:55.569Z,94.93
2023-01-23T18:02:29.273Z,94.61
2023-01-23T18:04:58.609Z,93.93
2023-01-23T18:07:27.484Z,93.73
2023-01-23T18:09:57.833Z,94.04
2023-01-23T18:12:35.581Z,94.07
2023-01-23T18:15:16.804Z,94.51
2023-01-23T18:17:56.836Z,94.20
2023-01-23T18:20:26.368Z,93.92
2023-01-23T18:22:55.570Z,93.34
2023-01-23T18:25:28.836Z,92.23
2023-01-23T18:28:06.960Z,92.38
2023-01-23T18:30:42.078Z,91.66
2023-01-23T18:33:20.033Z,91.56
2023-01-23T18:36:09.050Z,91.80
2023-01-23T18:39:00.159Z,91.72
2023-01-23T18:42:27.007Z,92.48
2023-01-23T18:45:56.746Z,92.03
2023-01-23T18:49:32.794Z,92.14
2023-01-23T18:56:44.781Z,92.88
2023-01-23T18:59:42.538Z,92.68
2023-01-23T19:02:24.938Z,92.57
2023-01-23T19:05:06.793Z,92.83
2023-01-23T19:07:37.914Z,92.69
2023-01-23T19:10:14.811Z,92.86
2023-01-23T19:13:04.187Z,92.75
2023-01-23T19:15:58.923Z,92.69
2023-01-23T19:18:57.917Z,92.39
2023-01-23T19:21:29.293Z,92.50
2023-01-23T19:24:04.642Z,92.18
2023-01-23T19:26:42.278Z,91.99
2023-01-23T19:29:21.667Z,92.19
2023-01-23T19:32:05.089Z,92.09
2023-01-23T19:34:35.223Z,92.64
2023-01-23T19:37:05.582Z,92.75
2023-01-23T19:39:35.708Z,92.25
2023-01-23T19:42:04.900Z,92.21
2023-01-23T19:44:34.302Z,92.15
2023-01-23T19:48:02.798Z,91.87
2023-01-23T19:51:31.532Z,91.37
2023-01-23T19:57:37.750Z,91.33
2023-01-23T20:00:08.900Z,90.97
2023-01-23T20:02:40.162Z,90.56
2023-01-23T20:05:10.199Z,90.39
2023-01-23T20:07:38.865Z,90.54
2023-01-23T20:10:09.108Z,90.39
2023-01-23T20:12:45.250Z,90.39
2023-01-23T20:15:14.980Z,90.42
2023-01-23T20:17:43.644Z,90.83
2023-01-23T20:20:13.668Z,90.99
2023-01-23T20:22:43.834Z,91.40
2023-01-23T20:25:15.948Z,91.32
2023-01-23T20:27:45.386Z,91.08
2023-01-23T20:30:19.642Z,91.26
2023-01-23T20:32:49.481Z,91.40
2023-01-23T20:35:19.704Z,91.56
2023-01-23T20:37:49.214Z,91.87
2023-01-23T20:40:18.211Z,92.28
2023-01-23T20:42:47.963Z,92.35
2023-01-23T20:45:16.911Z,92.17
2023-01-23T20:47:46.000Z,92.39
2023-01-23T20:50:15.199Z,92.72
2023-01-23T20:53:02.943Z,93.10
2023-01-23T20:55:31.924Z,93.30
2023-01-23T20:58:19.248Z,93.23
2023-01-23T21:00:48.980Z,93.28
2023-01-23T21:03:17.723Z,93.43
2023-01-23T21:05:46.312Z,93.52
2023-01-23T21:08:15.126Z,93.28
2023-01-23T21:10:43.707Z,93.43
2023-01-23T21:13:16.178Z,93.08
2023-01-23T21:16:01.552Z,92.76
2023-01-23T21:18:30.859Z,92.95
2023-01-23T21:21:03.919Z,92.77
2023-01-23T21:23:34.024Z,93.00
2023-01-23T21:26:04.268Z,93.39
2023-01-23T21:28:35.975Z,93.21
2023-01-23T21:31:35.448Z,93.24
2023-01-23T21:34:10.452Z,93.19
2023-01-23T21:36:42.044Z,92.94
2023-01-23T21:39:13.853Z,92.89
2023-01-23T21:41:43.599Z,92.77
2023-01-23T21:44:13.432Z,92.85
2023-01-23T21:46:42.587Z,93.02
2023-01-23T21:49:12.209Z,93.41
2023-01-23T21:51:41.023Z,93.48
2023-01-23T21:54:09.812Z,93.75
2023-01-23T21:56:39.285Z,94.03
2023-01-23T21:59:08.819Z,94.11
2023-01-23T22:01:42.659Z,94.04
2023-01-23T22:04:14.144Z,94.02
2023-01-23T22:06:44.691Z,94.54
2023-01-23T22:09:18.686Z,94.56
2023-01-23T22:11:49.026Z,94.70
2023-01-23T22:14:19.449Z,94.94
2023-01-23T22:16:49.645Z,94.92
2023-01-23T22:19:25.357Z,94.86
2023-01-23T22:21:55.401Z,94.47
2023-01-23T22:24:24.762Z,94.44
2023-01-23T22:26:53.450Z,94.26
2023-01-23T22:29:23.148Z,93.85
2023-01-23T22:31:52.720Z,93.34
2023-01-23T22:34:21.761Z,92.99
2023-01-23T22:36:50.435Z,93.23
2023-01-23T22:39:20.377Z,93.08
2023-01-23T22:41:52.492Z,92.67
2023-01-23T22:44:21.321Z,92.37
2023-01-23T22:46:53.320Z,92.08
2023-01-23T22:49:22.286Z,92.27
2023-01-23T22:51:51.781Z,92.83
2023-01-23T22:54:20.668Z,92.85
2023-01-23T22:56:49.274Z,92.70
2023-01-23T22:59:18.360Z,92.97
2023-01-23T23:01:47.336Z,93.01
2023-01-23T23:04:16.035Z,93.06
2023-01-23T23:06:45.335Z,93.02
2023-01-23T23:09:14.303Z,93.02
2023-01-23T23:11:42.914Z,93.17
2023-01-23T23:14:12.211Z,93.25
2023-01-23T23:16:41.411Z,93.20
2023-01-23T23:19:11.124Z,93.01
2023-01-23T23:21:39.907Z,92.86
2023-01-23T23:24:13.977Z,92.85
2023-01-23T23:26:43.014Z,92.65
2023-01-23T23:29:11.619Z,92.69
2023-01-23T23:31:40.514Z,92.83
2023-01-23T23:34:09.791Z,92.94
2023-01-23T23:36:38.607Z,92.98
2023-01-23T23:39:07.114Z,92.69
2023-01-23T23:41:36.169Z,92.85
2023-01-23T23:44:05.281Z,92.65
2023-01-23T23:46:33.921Z,92.50
2023-01-23T23:49:02.933Z,92.53
2023-01-23T23:51:31.727Z,92.48
2023-01-23T23:54:00.395Z,92.46
2023-01-23T23:56:29.448Z,92.20
2023-01-23T23:58:58.497Z,92.11
